createdAt,value
2018-11-26T00:02:16.606Z,33.67
2018-11-26T00:06:56.848Z,32.27
2018-11-26T00:11:38.441Z,33.17
2018-11-26T00:16:19.047Z,36.63
2018-11-26T00:20:59.311Z,33.83
2018-11-26T00:25:39.407Z,32.73
2018-11-26T00:30:19.575Z,34.77
2018-11-26T00:34:59.989Z,33.10
2018-11-26T00:39:39.896Z,30.07
2018-11-26T00:44:20.550Z,29.47
2018-11-26T00:49:00.723Z,31.87
2018-11-26T00:53:41.190Z,29.83
2018-11-26T00:58:21.791Z,30.03
2018-11-26T01:03:02.266Z,31.73
2018-11-26T01:07:43.191Z,29.57
2018-11-26T01:12:23.114Z,29.33
2018-11-26T01:17:03.509Z,31.23
2018-11-26T01:21:43.219Z,29.50
2018-11-26T01:26:23.006Z,34.63
2018-11-26T01:31:03.263Z,31.87
2018-11-26T01:35:43.267Z,34.60
2018-11-26T01:40:29.326Z,31.73
2018-11-26T01:45:10.151Z,34.23
2018-11-26T01:49:50.410Z,33.93
2018-11-26T01:54:30.576Z,40.43
2018-11-26T01:59:11.372Z,38.87
2018-11-26T02:03:51.556Z,40.97
2018-11-26T02:08:31.666Z,35.00
2018-11-26T02:13:11.771Z,34.13
2018-11-26T02:17:51.838Z,35.03
2018-11-26T02:22:31.971Z,38.13
2018-11-26T02:27:13.044Z,35.23
2018-11-26T02:31:53.601Z,32.90
2018-11-26T02:36:33.995Z,34.80
2018-11-26T02:41:15.384Z,34.67
2018-11-26T02:45:55.423Z,35.70
2018-11-26T02:50:35.787Z,38.13
2018-11-26T02:55:15.718Z,35.10
2018-11-26T02:59:55.888Z,34.47
2018-11-26T03:04:35.807Z,37.87
2018-11-26T03:09:16.661Z,38.40
2018-11-26T03:13:57.280Z,33.23
2018-11-26T03:18:37.547Z,32.83
2018-11-26T03:23:17.903Z,34.70
2018-11-26T03:27:58.399Z,32.97
2018-11-26T03:32:38.901Z,34.40
2018-11-26T03:37:19.252Z,34.03
2018-11-26T03:41:59.553Z,36.73
2018-11-26T03:46:39.915Z,36.97
2018-11-26T03:51:19.858Z,36.20
2018-11-26T03:55:59.946Z,36.07
2018-11-26T04:00:40.317Z,38.90
2018-11-26T04:05:20.995Z,36.47
2018-11-26T04:10:00.886Z,41.30
2018-11-26T04:14:42.036Z,36.37
2018-11-26T04:19:22.275Z,37.57
2018-11-26T04:24:02.895Z,36.00
2018-11-26T04:28:43.195Z,35.20
2018-11-26T04:33:23.299Z,33.97
2018-11-26T04:38:04.291Z,31.43
2018-11-26T04:42:44.246Z,31.87
2018-11-26T04:47:24.223Z,33.07
2018-11-26T04:52:04.743Z,30.53
2018-11-26T04:56:46.901Z,27.80
2018-11-26T05:01:27.134Z,27.37
2018-11-26T05:06:07.670Z,28.50
2018-11-26T05:10:47.930Z,27.53
2018-11-26T05:15:28.055Z,28.40
2018-11-26T05:20:12.299Z,26.37
2018-11-26T05:24:52.637Z,25.87
2018-11-26T05:29:32.744Z,28.50
2018-11-26T05:34:12.783Z,24.87
2018-11-26T05:38:53.780Z,26.00
2018-11-26T05:43:34.544Z,24.63
2018-11-26T05:48:14.839Z,24.80
2018-11-26T05:52:55.610Z,23.97
2018-11-26T05:57:35.702Z,23.27
2018-11-26T06:02:16.889Z,25.10
2018-11-26T06:06:58.188Z,23.93
2018-11-26T06:11:39.510Z,20.33
2018-11-26T06:16:19.668Z,21.50
2018-11-26T06:21:00.106Z,21.97
2018-11-26T06:25:41.305Z,20.30
2018-11-26T06:30:22.345Z,19.50
2018-11-26T06:35:03.571Z,21.97
2018-11-26T06:39:44.827Z,22.10
2018-11-26T06:44:24.942Z,23.70
2018-11-26T06:49:05.327Z,19.30
2018-11-26T06:53:46.230Z,23.20
2018-11-26T06:58:26.254Z,23.90
2018-11-26T07:03:07.221Z,21.23
2018-11-26T07:07:48.428Z,20.57
2018-11-26T07:12:29.210Z,18.00
2018-11-26T07:17:09.290Z,17.80
2018-11-26T07:21:49.417Z,22.40
2018-11-26T07:26:29.910Z,18.43
2018-11-26T07:31:10.955Z,17.57
2018-11-26T07:35:51.092Z,22.93
2018-11-26T07:40:32.095Z,19.97
2018-11-26T07:45:14.522Z,17.50
2018-11-26T07:49:55.212Z,22.47
2018-11-26T07:54:35.567Z,19.53
2018-11-26T07:59:15.786Z,19.47
2018-11-26T08:03:56.716Z,19.83
2018-11-26T08:08:37.590Z,19.83
2018-11-26T08:13:17.788Z,20.67
2018-11-26T08:17:58.418Z,20.90
2018-11-26T08:22:39.121Z,20.03
2018-11-26T08:27:20.053Z,21.30
2018-11-26T08:32:01.152Z,20.23
2018-11-26T08:36:44.540Z,25.63
2018-11-26T08:41:43.615Z,23.03
2018-11-26T08:46:29.218Z,21.30
2018-11-26T08:51:10.515Z,22.53
2018-11-26T08:55:50.824Z,21.83
2018-11-26T09:00:30.754Z,21.60
2018-11-26T09:05:16.144Z,21.43
2018-11-26T09:09:57.104Z,21.27
2018-11-26T09:14:37.233Z,21.37
2018-11-26T09:19:18.152Z,19.70
2018-11-26T09:23:59.448Z,20.63
2018-11-26T09:28:41.068Z,21.40
2018-11-26T09:33:21.582Z,18.60
2018-11-26T09:38:03.029Z,19.70
2018-11-26T09:42:44.363Z,20.20
2018-11-26T09:47:24.920Z,21.33
2018-11-26T09:52:05.711Z,19.97
2018-11-26T09:56:47.126Z,19.60
2018-11-26T10:01:27.411Z,20.77
2018-11-26T10:06:07.390Z,22.53
2018-11-26T10:10:47.655Z,21.80
2018-11-26T10:15:28.214Z,18.17
2018-11-26T10:20:09.453Z,18.20
2018-11-26T10:24:50.284Z,18.00
2018-11-26T10:29:30.670Z,18.80
2018-11-26T10:34:11.249Z,16.20
2018-11-26T10:38:51.171Z,18.97
2018-11-26T10:43:31.674Z,16.93
2018-11-26T10:48:12.530Z,18.00
2018-11-26T10:52:56.684Z,19.53
2018-11-26T10:57:38.627Z,16.80
2018-11-26T11:02:24.919Z,19.67
2018-11-26T11:07:05.739Z,16.90
2018-11-26T11:11:45.988Z,17.40
2018-11-26T11:16:26.344Z,16.67
2018-11-26T11:21:07.163Z,15.40
2018-11-26T11:25:48.819Z,14.80
2018-11-26T11:30:31.590Z,13.97
2018-11-26T11:35:13.142Z,14.23
2018-11-26T11:39:53.367Z,14.30
2018-11-26T11:44:35.719Z,15.40
2018-11-26T11:49:15.406Z,14.47
2018-11-26T11:53:55.935Z,15.03
2018-11-26T11:58:37.500Z,14.73
2018-11-26T12:03:19.022Z,15.50
2018-11-26T12:08:00.232Z,15.97
2018-11-26T12:12:41.262Z,14.27
2018-11-26T12:17:22.435Z,14.83
2018-11-26T12:22:02.860Z,15.20
2018-11-26T12:26:44.080Z,14.50
2018-11-26T12:31:25.193Z,16.37
2018-11-26T12:36:06.145Z,26.13
2018-11-26T12:40:47.211Z,33.67
2018-11-26T12:45:29.580Z,18.80
2018-11-26T12:50:10.050Z,20.03
2018-11-26T12:54:50.270Z,18.23
2018-11-26T12:59:30.367Z,18.30
2018-11-26T13:04:10.845Z,19.50
2018-11-26T13:08:51.859Z,20.67
2018-11-26T13:13:31.887Z,21.07
2018-11-26T13:18:12.232Z,18.70
2018-11-26T13:22:52.949Z,18.87
2018-11-26T13:27:33.530Z,18.70
2018-11-26T13:32:15.389Z,19.37
2018-11-26T13:36:56.618Z,19.10
2018-11-26T13:41:37.650Z,19.10
2018-11-26T13:46:17.644Z,18.80
2018-11-26T13:50:59.155Z,17.52
2018-11-26T13:55:40.648Z,18.80
2018-11-26T14:00:21.263Z,17.80
2018-11-26T14:05:02.400Z,17.33
2018-11-26T14:09:43.635Z,16.73
2018-11-26T14:14:24.006Z,19.30
2018-11-26T14:19:05.352Z,19.53
2018-11-26T14:23:45.917Z,19.23
2018-11-26T14:28:27.117Z,20.00
2018-11-26T14:33:07.859Z,18.17
2018-11-26T14:37:50.540Z,18.90
2018-11-26T14:42:30.769Z,19.67
2018-11-26T14:47:11.530Z,16.90
2018-11-26T14:51:52.988Z,21.20
2018-11-26T14:56:33.411Z,19.33
2018-11-26T15:01:14.777Z,21.03
2018-11-26T15:05:55.278Z,20.70
2018-11-26T15:10:35.808Z,20.48
2018-11-26T15:15:17.941Z,20.53
2018-11-26T15:19:59.801Z,21.25
2018-11-26T15:24:40.276Z,18.30
2018-11-26T15:29:21.359Z,19.50
2018-11-26T15:34:04.523Z,22.57
2018-11-26T15:38:47.393Z,21.07
2018-11-26T15:43:28.413Z,21.33
2018-11-26T15:48:12.881Z,19.40
2018-11-26T15:52:53.278Z,20.47
2018-11-26T15:57:34.319Z,21.23
2018-11-26T16:02:14.254Z,20.67
2018-11-26T16:06:54.553Z,21.07
2018-11-26T16:11:35.440Z,21.63
2018-11-26T16:16:16.042Z,22.37
2018-11-26T16:20:55.908Z,21.63
2018-11-26T16:25:36.080Z,19.87
2018-11-26T16:30:17.221Z,21.40
2018-11-26T16:34:57.416Z,19.33
2018-11-26T16:39:37.813Z,18.97
2018-11-26T16:44:17.980Z,23.30
2018-11-26T16:48:59.204Z,19.97
2018-11-26T16:53:39.163Z,20.63
2018-11-26T16:58:19.212Z,25.60
2018-11-26T17:03:00.145Z,23.50
2018-11-26T17:07:40.722Z,21.43
2018-11-26T17:12:21.276Z,18.37
2018-11-26T17:17:01.531Z,24.50
2018-11-26T17:21:41.779Z,21.23
2018-11-26T17:26:22.441Z,20.57
2018-11-26T17:31:03.341Z,21.93
2018-11-26T17:35:44.124Z,23.10
2018-11-26T17:40:24.841Z,20.00
2018-11-26T17:45:05.100Z,20.77
2018-11-26T17:49:45.128Z,22.83
2018-11-26T17:54:26.465Z,19.00
2018-11-26T17:59:06.712Z,18.53
2018-11-26T18:03:46.990Z,20.93
2018-11-26T18:08:27.644Z,21.20
2018-11-26T18:13:07.965Z,23.93
2018-11-26T18:17:49.227Z,22.60
2018-11-26T18:22:29.433Z,23.70
2018-11-26T18:27:10.281Z,36.97
2018-11-26T18:31:50.516Z,23.40
2018-11-26T18:36:30.331Z,26.53
2018-11-26T18:41:12.059Z,23.00
2018-11-26T18:45:53.047Z,23.57
2018-11-26T18:50:34.195Z,25.53
2018-11-26T18:55:15.020Z,25.67
2018-11-26T18:59:55.281Z,25.47
2018-11-26T19:04:34.992Z,29.50
2018-11-26T19:09:15.934Z,27.33
2018-11-26T19:14:05.753Z,30.33
2018-11-26T19:18:45.884Z,29.93
2018-11-26T19:23:26.898Z,29.20
2018-11-26T19:28:06.856Z,31.93
2018-11-26T19:32:46.924Z,35.90
2018-11-26T19:37:26.725Z,35.97
2018-11-26T19:42:06.854Z,35.33
2018-11-26T19:46:46.765Z,60.87
2018-11-26T19:51:26.991Z,45.60
2018-11-26T19:56:06.995Z,44.20
2018-11-26T20:00:47.344Z,44.90
2018-11-26T20:05:35.786Z,36.70
2018-11-26T20:10:15.771Z,31.90
2018-11-26T20:14:55.810Z,28.17
2018-11-26T20:19:35.891Z,28.50
2018-11-26T20:24:15.841Z,24.70
2018-11-26T20:28:57.048Z,29.70
2018-11-26T20:33:36.576Z,30.47
2018-11-26T20:38:16.623Z,32.07
2018-11-26T20:42:57.243Z,34.37
2018-11-26T20:47:37.547Z,34.93
2018-11-26T20:52:17.513Z,40.80
2018-11-26T20:56:57.425Z,33.40
2018-11-26T21:01:37.845Z,38.33
2018-11-26T21:06:18.057Z,30.83
2018-11-26T21:10:58.584Z,42.50
2018-11-26T21:15:38.792Z,38.83
2018-11-26T21:20:26.769Z,40.27
2018-11-26T21:25:10.129Z,38.17
2018-11-26T21:29:51.204Z,35.80
2018-11-26T21:34:31.626Z,39.50
2018-11-26T21:39:12.012Z,39.63
2018-11-26T21:43:52.637Z,41.07
2018-11-26T21:48:34.858Z,31.17
2018-11-26T21:53:15.221Z,33.73
2018-11-26T21:57:55.106Z,35.80
2018-11-26T22:02:35.520Z,33.67
2018-11-26T22:07:16.179Z,32.60
2018-11-26T22:11:56.290Z,29.53
2018-11-26T22:16:36.425Z,36.20
2018-11-26T22:21:16.479Z,40.63
2018-11-26T22:25:57.383Z,38.63
2018-11-26T22:30:38.080Z,34.97
2018-11-26T22:35:18.278Z,33.27
2018-11-26T22:39:57.992Z,35.67
2018-11-26T22:44:37.956Z,39.13
2018-11-26T22:49:18.791Z,39.00
2018-11-26T22:53:58.885Z,36.80
2018-11-26T22:58:38.855Z,39.13
2018-11-26T23:03:20.254Z,37.10
2018-11-26T23:08:00.911Z,39.27
2018-11-26T23:12:41.004Z,44.47
2018-11-26T23:17:21.936Z,47.63
2018-11-26T23:22:02.335Z,40.73
2018-11-26T23:26:43.817Z,47.43
2018-11-26T23:31:23.960Z,44.97
2018-11-26T23:36:04.444Z,49.83
2018-11-26T23:40:46.079Z,45.13
2018-11-26T23:45:27.879Z,54.43
2018-11-26T23:50:09.552Z,45.87
2018-11-26T23:54:49.739Z,50.77
2018-11-26T23:59:30.071Z,44.07
